createdAt,value
2023-05-14T00:00:16.075Z,17.14
2023-05-14T00:02:42.761Z,17.22
2023-05-14T00:05:09.781Z,17.18
2023-05-14T00:07:36.385Z,17.11
2023-05-14T00:10:03.003Z,17.16
2023-05-14T00:12:30.060Z,17.20
2023-05-14T00:14:56.660Z,17.20
2023-05-14T00:17:23.298Z,17.11
2023-05-14T00:19:49.998Z,17.18
2023-05-14T00:22:16.563Z,17.05
2023-05-14T00:24:43.223Z,17.14
2023-05-14T00:27:09.774Z,17.19
2023-05-14T00:29:36.352Z,17.14
2023-05-14T00:32:03.315Z,17.18
2023-05-14T00:34:30.886Z,16.93
2023-05-14T00:36:57.465Z,17.16
2023-05-14T00:39:24.039Z,17.17
2023-05-14T00:41:51.894Z,17.00
2023-05-14T00:44:18.459Z,17.02
2023-05-14T00:46:45.240Z,17.02
2023-05-14T00:49:11.846Z,17.10
2023-05-14T00:51:38.449Z,17.25
2023-05-14T00:54:05.065Z,17.16
2023-05-14T00:56:31.633Z,17.00
2023-05-14T00:58:58.564Z,17.02
2023-05-14T01:01:25.206Z,17.16
2023-05-14T01:03:52.073Z,17.18
2023-05-14T01:06:18.710Z,17.25
2023-05-14T01:08:45.294Z,17.24
2023-05-14T01:11:11.897Z,17.31
2023-05-14T01:13:38.453Z,17.30
2023-05-14T01:16:05.081Z,17.36
2023-05-14T01:18:31.775Z,17.35
2023-05-14T01:20:58.368Z,17.27
2023-05-14T01:23:24.959Z,17.17
2023-05-14T01:25:52.473Z,17.07
2023-05-14T01:28:19.141Z,17.14
2023-05-14T01:30:45.726Z,17.02
2023-05-14T01:33:12.313Z,17.11
2023-05-14T01:35:39.244Z,17.06
2023-05-14T01:38:05.814Z,17.10
2023-05-14T01:40:33.065Z,17.19
2023-05-14T01:42:59.678Z,17.06
2023-05-14T01:45:26.299Z,17.18
2023-05-14T01:47:52.902Z,17.15
2023-05-14T01:50:19.488Z,17.02
2023-05-14T01:52:46.226Z,16.72
2023-05-14T01:55:12.817Z,16.81
2023-05-14T01:57:39.404Z,16.97
2023-05-14T02:00:07.239Z,16.52
2023-05-14T02:02:33.892Z,16.15
2023-05-14T02:05:00.529Z,16.01
2023-05-14T02:07:27.096Z,15.63
2023-05-14T02:09:53.716Z,15.53
2023-05-14T02:12:20.289Z,15.32
2023-05-14T02:14:46.885Z,15.44
2023-05-14T02:17:13.473Z,15.58
2023-05-14T02:19:39.979Z,15.80
2023-05-14T02:22:07.309Z,15.74
2023-05-14T02:24:33.889Z,15.93
2023-05-14T02:27:00.587Z,16.18
2023-05-14T02:29:27.337Z,15.88
2023-05-14T02:31:54.026Z,15.92
2023-05-14T02:34:20.667Z,15.69
2023-05-14T02:36:47.247Z,15.75
2023-05-14T02:39:13.808Z,15.90
2023-05-14T02:41:40.395Z,15.81
2023-05-14T02:44:06.974Z,15.79
2023-05-14T02:46:33.624Z,15.69
2023-05-14T02:49:00.278Z,15.44
2023-05-14T02:51:27.051Z,15.67
2023-05-14T02:53:53.645Z,15.64
2023-05-14T02:56:20.215Z,15.89
2023-05-14T02:58:46.816Z,15.73
2023-05-14T03:01:13.488Z,15.28
2023-05-14T03:03:40.883Z,15.27
2023-05-14T03:06:07.666Z,15.45
2023-05-14T03:08:34.819Z,15.49
2023-05-14T03:11:01.406Z,15.27
2023-05-14T03:13:27.978Z,15.20
2023-05-14T03:15:54.556Z,15.17
2023-05-14T03:18:21.142Z,15.43
2023-05-14T03:20:47.736Z,15.57
2023-05-14T03:23:14.369Z,15.38
2023-05-14T03:25:41.630Z,15.72
2023-05-14T03:28:08.208Z,15.88
2023-05-14T03:30:35.544Z,15.94
2023-05-14T03:33:02.188Z,16.09
2023-05-14T03:35:28.794Z,16.01
2023-05-14T03:37:55.387Z,16.11
2023-05-14T03:40:22.089Z,16.04
2023-05-14T03:42:48.885Z,16.23
2023-05-14T03:45:15.552Z,16.41
2023-05-14T03:47:42.195Z,16.13
2023-05-14T03:50:08.814Z,16.21
2023-05-14T03:52:35.406Z,16.06
2023-05-14T03:55:01.962Z,16.15
2023-05-14T03:57:28.652Z,16.35
2023-05-14T03:59:55.235Z,16.27
2023-05-14T04:02:21.847Z,16.56
2023-05-14T04:04:48.489Z,16.45
2023-05-14T04:07:15.140Z,16.32
2023-05-14T04:09:41.742Z,16.53
2023-05-14T04:12:08.475Z,16.46
2023-05-14T04:14:36.682Z,16.36
2023-05-14T04:17:03.256Z,16.53
2023-05-14T04:19:29.862Z,16.76
2023-05-14T04:21:56.436Z,16.90
2023-05-14T04:24:23.015Z,17.08
2023-05-14T04:26:49.602Z,17.18
2023-05-14T04:29:16.201Z,17.14
2023-05-14T04:31:42.857Z,16.68
2023-05-14T04:34:10.038Z,16.35
2023-05-14T04:36:36.646Z,16.77
2023-05-14T04:39:03.204Z,16.90
2023-05-14T04:41:29.778Z,16.86
2023-05-14T04:43:56.378Z,16.39
2023-05-14T04:46:23.029Z,16.61
2023-05-14T04:48:49.652Z,16.61
2023-05-14T04:51:16.245Z,16.74
2023-05-14T04:53:42.805Z,16.91
2023-05-14T04:56:09.394Z,17.11
2023-05-14T04:58:36.004Z,17.22
2023-05-14T05:01:02.631Z,17.30
2023-05-14T05:03:29.498Z,17.28
2023-05-14T05:05:56.145Z,17.18
2023-05-14T05:08:22.754Z,17.02
2023-05-14T05:10:49.314Z,17.15
2023-05-14T05:13:15.896Z,17.31
2023-05-14T05:15:42.560Z,17.37
2023-05-14T05:18:09.182Z,17.40
2023-05-14T05:20:35.868Z,17.37
2023-05-14T05:23:02.695Z,17.40
2023-05-14T05:25:31.338Z,17.50
2023-05-14T05:27:57.908Z,17.47
2023-05-14T05:30:24.590Z,17.49
2023-05-14T05:32:51.378Z,17.43
2023-05-14T05:35:18.005Z,17.52
2023-05-14T05:37:44.586Z,17.55
2023-05-14T05:40:11.171Z,17.58
2023-05-14T05:42:37.766Z,17.49
2023-05-14T05:45:04.423Z,17.50
2023-05-14T05:47:31.142Z,17.62
2023-05-14T05:49:57.754Z,17.62
2023-05-14T05:52:24.611Z,17.49
2023-05-14T05:54:51.198Z,17.56
2023-05-14T05:57:17.951Z,17.59
2023-05-14T05:59:44.551Z,17.62
2023-05-14T06:02:11.196Z,17.64
2023-05-14T06:04:37.788Z,17.64
2023-05-14T06:07:06.105Z,17.51
2023-05-14T06:09:32.699Z,17.57
2023-05-14T06:11:59.264Z,17.47
2023-05-14T06:14:27.922Z,17.57
2023-05-14T06:16:54.553Z,17.59
2023-05-14T06:19:21.222Z,17.51
2023-05-14T06:21:47.880Z,17.51
2023-05-14T06:24:14.441Z,17.57
2023-05-14T06:26:41.129Z,17.62
2023-05-14T06:29:07.785Z,17.67
2023-05-14T06:31:35.367Z,17.62
2023-05-14T06:34:02.024Z,17.64
2023-05-14T06:36:28.819Z,17.73
2023-05-14T06:38:55.407Z,17.67
2023-05-14T06:41:22.076Z,17.67
2023-05-14T06:43:48.667Z,17.81
2023-05-14T06:46:15.238Z,17.77
2023-05-14T06:48:41.897Z,17.84
2023-05-14T06:51:08.503Z,17.82
2023-05-14T06:53:35.127Z,17.85
2023-05-14T06:56:01.766Z,17.91
2023-05-14T06:58:28.355Z,17.96
2023-05-14T07:00:54.917Z,17.86
2023-05-14T07:03:21.504Z,17.85
2023-05-14T07:05:48.057Z,17.93
2023-05-14T07:08:14.729Z,18.01
2023-05-14T07:10:41.282Z,18.02
2023-05-14T07:13:07.883Z,18.09
2023-05-14T07:15:34.487Z,18.14
2023-05-14T07:18:01.177Z,18.11
2023-05-14T07:20:27.932Z,18.07
2023-05-14T07:22:54.714Z,18.08
2023-05-14T07:25:21.315Z,18.02
2023-05-14T07:27:47.996Z,18.02
2023-05-14T07:30:14.592Z,18.07
2023-05-14T07:32:41.483Z,17.99
2023-05-14T07:35:08.591Z,18.00
2023-05-14T07:37:35.289Z,18.07
2023-05-14T07:40:02.127Z,18.06
2023-05-14T07:42:35.755Z,17.95
2023-05-14T07:45:03.416Z,17.73
2023-05-14T07:47:30.125Z,17.41
2023-05-14T07:49:56.952Z,17.59
2023-05-14T07:52:23.554Z,17.38
2023-05-14T07:54:50.891Z,17.45
2023-05-14T07:57:17.515Z,17.16
2023-05-14T07:59:44.081Z,17.21
2023-05-14T08:02:10.712Z,17.14
2023-05-14T08:04:37.361Z,17.24
2023-05-14T08:07:03.995Z,17.53
2023-05-14T08:09:30.922Z,17.61
2023-05-14T08:11:57.872Z,17.53
2023-05-14T08:14:24.516Z,17.23
2023-05-14T08:16:51.111Z,17.12
2023-05-14T08:19:17.860Z,17.19
2023-05-14T08:21:44.565Z,17.10
2023-05-14T08:24:11.157Z,17.27
2023-05-14T08:26:37.714Z,17.71
2023-05-14T08:29:04.299Z,17.71
2023-05-14T08:31:30.967Z,17.69
2023-05-14T08:33:57.558Z,17.63
2023-05-14T08:36:25.162Z,17.51
2023-05-14T08:38:51.753Z,17.69
2023-05-14T08:41:18.320Z,17.29
2023-05-14T08:43:47.024Z,17.09
2023-05-14T08:46:13.647Z,17.43
2023-05-14T08:48:40.303Z,17.27
2023-05-14T08:51:06.915Z,16.24
2023-05-14T08:53:33.583Z,16.40
2023-05-14T08:56:01.041Z,16.32
2023-05-14T08:58:27.618Z,16.75
2023-05-14T09:00:54.304Z,16.92
2023-05-14T09:03:20.987Z,16.68
2023-05-14T09:05:47.587Z,16.80
2023-05-14T09:08:14.194Z,16.84
2023-05-14T09:10:40.756Z,17.31
2023-05-14T09:13:07.341Z,16.98
2023-05-14T09:15:33.913Z,17.07
2023-05-14T09:18:00.537Z,17.43
2023-05-14T09:20:27.423Z,17.29
2023-05-14T09:22:54.529Z,17.28
2023-05-14T09:25:21.393Z,17.70
2023-05-14T09:27:48.050Z,18.02
2023-05-14T09:30:14.657Z,18.26
2023-05-14T09:32:41.242Z,18.20
2023-05-14T09:35:07.851Z,18.33
2023-05-14T09:37:34.665Z,18.49
2023-05-14T09:40:01.486Z,18.41
2023-05-14T09:42:28.846Z,18.21
2023-05-14T09:44:56.028Z,18.30
2023-05-14T09:47:22.738Z,18.37
2023-05-14T09:49:50.367Z,18.17
2023-05-14T09:52:16.962Z,17.75
2023-05-14T09:54:43.612Z,18.03
2023-05-14T09:57:10.275Z,17.93
2023-05-14T09:59:37.059Z,17.64
2023-05-14T10:02:03.636Z,17.56
2023-05-14T10:04:30.215Z,17.76
2023-05-14T10:06:56.873Z,17.99
2023-05-14T10:09:27.020Z,17.88
2023-05-14T10:11:53.750Z,18.43
2023-05-14T10:14:20.310Z,18.70
2023-05-14T10:16:47.020Z,18.95
2023-05-14T10:19:13.670Z,19.04
2023-05-14T10:21:40.350Z,18.97
2023-05-14T10:24:06.962Z,19.08
2023-05-14T10:26:33.833Z,19.25
2023-05-14T10:29:00.502Z,19.36
2023-05-14T10:31:27.146Z,19.54
2023-05-14T10:33:53.823Z,19.64
2023-05-14T10:36:20.512Z,19.64
2023-05-14T10:38:47.130Z,19.44
2023-05-14T10:41:13.906Z,19.45
2023-05-14T10:43:40.525Z,19.53
2023-05-14T10:46:07.173Z,19.64
2023-05-14T10:48:33.780Z,19.59
2023-05-14T10:51:00.434Z,19.45
2023-05-14T10:53:27.328Z,19.47
2023-05-14T10:55:53.893Z,19.27
2023-05-14T10:58:21.105Z,18.81
2023-05-14T11:00:47.691Z,18.71
2023-05-14T11:03:14.306Z,19.04
2023-05-14T11:05:40.880Z,18.76
2023-05-14T11:08:07.483Z,18.64
2023-05-14T11:10:34.318Z,18.65
2023-05-14T11:13:01.293Z,18.19
2023-05-14T11:15:27.946Z,17.97
2023-05-14T11:17:54.697Z,17.50
2023-05-14T11:20:21.434Z,17.71
2023-05-14T11:22:48.060Z,18.15
2023-05-14T11:25:15.151Z,18.10
2023-05-14T11:27:41.857Z,17.31
2023-05-14T11:30:08.433Z,17.54
2023-05-14T11:32:35.589Z,17.45
2023-05-14T11:35:02.204Z,17.31
2023-05-14T11:37:28.795Z,16.97
2023-05-14T11:39:55.400Z,16.99
2023-05-14T11:42:21.967Z,17.14
2023-05-14T11:44:48.665Z,17.38
2023-05-14T11:47:15.450Z,17.74
2023-05-14T11:49:42.065Z,17.03
2023-05-14T11:52:08.643Z,16.78
2023-05-14T11:54:35.243Z,16.56
2023-05-14T11:57:01.841Z,16.65
2023-05-14T11:59:28.639Z,16.51
2023-05-14T12:01:55.199Z,16.88
2023-05-14T12:04:22.138Z,17.37
2023-05-14T12:06:48.925Z,17.57
2023-05-14T12:09:15.538Z,17.60
2023-05-14T12:11:42.392Z,17.64
2023-05-14T12:14:10.176Z,17.42
2023-05-14T12:19:21.159Z,16.78
2023-05-14T12:21:47.795Z,16.99
2023-05-14T12:24:14.615Z,16.13
2023-05-14T12:26:41.192Z,16.33
2023-05-14T12:29:07.795Z,16.70
2023-05-14T12:31:34.423Z,16.58
2023-05-14T12:34:01.027Z,15.79
2023-05-14T12:36:27.630Z,15.62
2023-05-14T12:38:54.208Z,15.73
2023-05-14T12:41:20.836Z,16.06
2023-05-14T12:43:47.405Z,16.26
2023-05-14T12:46:14.626Z,16.41
2023-05-14T12:48:41.209Z,16.16
2023-05-14T12:51:07.805Z,16.24
2023-05-14T12:53:34.397Z,16.15
2023-05-14T12:56:00.978Z,15.99
2023-05-14T12:58:27.632Z,16.47
2023-05-14T13:00:54.321Z,16.37
2023-05-14T13:03:20.998Z,16.60
2023-05-14T13:05:47.612Z,16.88
2023-05-14T13:08:14.205Z,16.69
2023-05-14T13:10:40.760Z,16.35
2023-05-14T13:13:07.341Z,15.92
2023-05-14T13:15:33.945Z,16.07
2023-05-14T13:18:00.649Z,15.83
2023-05-14T13:20:27.337Z,15.62
2023-05-14T13:22:54.033Z,15.75
2023-05-14T13:25:20.662Z,15.48
2023-05-14T13:27:47.264Z,15.69
2023-05-14T13:30:13.858Z,15.63
2023-05-14T13:32:42.192Z,15.50
2023-05-14T13:35:08.931Z,15.71
2023-05-14T13:37:35.475Z,15.73
2023-05-14T13:40:02.062Z,15.74
2023-05-14T13:42:28.659Z,15.97
2023-05-14T13:44:55.252Z,15.62
2023-05-14T13:47:21.840Z,15.70
2023-05-14T13:49:49.596Z,15.81
2023-05-14T13:52:16.195Z,16.18
2023-05-14T13:54:42.770Z,16.01
2023-05-14T13:57:09.350Z,16.29
2023-05-14T13:59:37.072Z,16.37
2023-05-14T14:02:03.841Z,16.43
2023-05-14T14:04:30.517Z,16.32
2023-05-14T14:06:57.115Z,16.72
2023-05-14T14:09:24.179Z,17.17
2023-05-14T14:11:50.802Z,16.66
2023-05-14T14:14:17.416Z,16.89
2023-05-14T14:16:44.074Z,16.85
2023-05-14T14:19:10.882Z,16.96
2023-05-14T14:21:37.863Z,17.10
2023-05-14T14:24:04.461Z,17.33
2023-05-14T14:26:31.027Z,17.45
2023-05-14T14:28:57.607Z,17.46
2023-05-14T14:31:24.233Z,17.49
2023-05-14T14:33:50.840Z,17.48
2023-05-14T14:36:17.931Z,17.62
2023-05-14T14:38:44.491Z,17.56
2023-05-14T14:41:11.288Z,17.50
2023-05-14T14:43:37.853Z,17.66
2023-05-14T14:46:04.503Z,17.79
2023-05-14T14:48:31.094Z,17.79
2023-05-14T14:50:57.808Z,17.82
2023-05-14T14:53:24.641Z,17.90
2023-05-14T14:55:51.263Z,17.77
2023-05-14T14:58:17.841Z,17.77
2023-05-14T15:00:44.438Z,17.85
2023-05-14T15:03:11.117Z,17.79
2023-05-14T15:05:37.886Z,17.85
2023-05-14T15:08:04.476Z,17.88
2023-05-14T15:10:31.066Z,17.75
2023-05-14T15:12:57.668Z,17.73
2023-05-14T15:15:24.426Z,17.77
2023-05-14T15:17:51.119Z,17.84
2023-05-14T15:20:17.714Z,17.92
2023-05-14T15:22:44.289Z,17.82
2023-05-14T15:25:11.228Z,17.94
2023-05-14T15:27:37.942Z,17.91
2023-05-14T15:30:04.542Z,17.59
2023-05-14T15:32:31.114Z,17.38
2023-05-14T15:34:57.739Z,17.45
2023-05-14T15:37:24.342Z,17.73
2023-05-14T15:39:50.958Z,17.76
2023-05-14T15:42:17.801Z,17.75
2023-05-14T15:44:44.369Z,17.76
2023-05-14T15:47:11.002Z,17.85
2023-05-14T15:49:37.603Z,17.96
2023-05-14T15:52:04.172Z,17.97
2023-05-14T15:54:30.762Z,17.99
2023-05-14T15:56:57.385Z,18.03
2023-05-14T15:59:24.042Z,18.02
2023-05-14T16:01:50.703Z,17.98
2023-05-14T16:04:17.557Z,18.01
2023-05-14T16:06:44.145Z,17.87
2023-05-14T16:09:10.717Z,17.88
2023-05-14T16:11:37.283Z,17.97
2023-05-14T16:14:03.879Z,17.98
2023-05-14T16:16:30.770Z,18.06
2023-05-14T16:18:57.607Z,17.87
2023-05-14T16:21:24.217Z,17.85
2023-05-14T16:23:50.807Z,17.65
2023-05-14T16:26:17.446Z,17.65
2023-05-14T16:28:44.069Z,17.59
2023-05-14T16:31:10.656Z,17.76
2023-05-14T16:33:37.326Z,17.84
2023-05-14T16:36:03.982Z,17.87
2023-05-14T16:38:30.619Z,17.81
2023-05-14T16:40:57.228Z,17.79
2023-05-14T16:43:23.826Z,17.65
2023-05-14T16:45:50.432Z,17.97
2023-05-14T16:48:17.148Z,18.04
2023-05-14T16:50:43.781Z,17.92
2023-05-14T16:53:10.353Z,17.92
2023-05-14T16:55:36.962Z,17.77
2023-05-14T16:58:03.642Z,17.93
2023-05-14T17:00:30.242Z,17.90
2023-05-14T17:02:56.954Z,17.86
2023-05-14T17:05:23.708Z,18.06
2023-05-14T17:07:51.460Z,18.26
2023-05-14T17:10:18.050Z,18.29
2023-05-14T17:12:45.216Z,18.22
2023-05-14T17:15:11.814Z,18.27
2023-05-14T17:17:41.342Z,18.11
2023-05-14T17:20:08.259Z,17.97
2023-05-14T17:22:35.030Z,18.02
2023-05-14T17:25:01.625Z,18.01
2023-05-14T17:27:28.248Z,17.97
2023-05-14T17:29:54.896Z,17.74
2023-05-14T17:32:21.494Z,17.73
2023-05-14T17:34:48.147Z,17.96
2023-05-14T17:37:14.749Z,17.99
2023-05-14T17:39:41.319Z,18.06
2023-05-14T17:42:08.146Z,17.98
2023-05-14T17:44:34.740Z,17.82
2023-05-14T17:47:01.528Z,17.79
2023-05-14T17:49:28.381Z,17.63
2023-05-14T17:51:55.013Z,17.63
2023-05-14T17:54:21.582Z,17.77
2023-05-14T17:56:48.282Z,17.76
2023-05-14T17:59:14.897Z,17.78
2023-05-14T18:01:42.587Z,17.91
2023-05-14T18:04:09.354Z,17.93
2023-05-14T18:06:35.982Z,17.94
2023-05-14T18:09:02.561Z,17.94
2023-05-14T18:11:29.169Z,17.91
2023-05-14T18:13:55.746Z,17.85
2023-05-14T18:16:22.410Z,17.72
2023-05-14T18:18:49.116Z,17.79
2023-05-14T18:21:15.790Z,17.76
2023-05-14T18:23:42.352Z,17.77
2023-05-14T18:26:08.938Z,17.81
2023-05-14T18:28:35.493Z,17.94
2023-05-14T18:31:02.134Z,17.82
2023-05-14T18:33:28.854Z,17.64
2023-05-14T18:35:55.438Z,17.66
2023-05-14T18:38:22.239Z,17.75
2023-05-14T18:40:48.798Z,17.75
2023-05-14T18:43:15.386Z,17.74
2023-05-14T18:45:41.958Z,17.78
2023-05-14T18:48:08.708Z,17.82
2023-05-14T18:50:36.550Z,17.84
2023-05-14T18:53:04.864Z,17.77
2023-05-14T18:55:31.518Z,17.81
2023-05-14T18:57:58.080Z,17.85
2023-05-14T19:00:24.712Z,17.86
2023-05-14T19:02:51.420Z,17.77
2023-05-14T19:05:18.199Z,17.60
2023-05-14T19:07:44.793Z,17.59
2023-05-14T19:10:11.365Z,17.60
2023-05-14T19:12:37.950Z,17.64
2023-05-14T19:15:04.528Z,17.71
2023-05-14T19:17:31.155Z,17.65
2023-05-14T19:19:57.734Z,17.56
2023-05-14T19:22:24.358Z,17.40
2023-05-14T19:24:51.017Z,17.43
2023-05-14T19:27:17.651Z,17.32
2023-05-14T19:29:44.231Z,17.39
2023-05-14T19:32:10.840Z,17.21
2023-05-14T19:34:37.407Z,17.35
2023-05-14T19:37:05.064Z,17.29
2023-05-14T19:39:31.619Z,17.37
2023-05-14T19:41:58.178Z,17.16
2023-05-14T19:44:24.791Z,17.33
2023-05-14T19:46:51.414Z,17.26
2023-05-14T19:49:18.024Z,17.30
2023-05-14T19:51:44.735Z,17.32
2023-05-14T19:54:11.331Z,17.33
2023-05-14T19:56:37.920Z,17.39
2023-05-14T19:59:04.527Z,17.37
2023-05-14T20:01:31.160Z,17.42
2023-05-14T20:03:57.904Z,17.45
2023-05-14T20:06:24.494Z,17.40
2023-05-14T20:08:51.790Z,17.33
2023-05-14T20:11:18.393Z,17.32
2023-05-14T20:13:44.955Z,17.42
2023-05-14T20:16:11.556Z,17.27
2023-05-14T20:18:38.206Z,17.24
2023-05-14T20:21:04.790Z,17.20
2023-05-14T20:23:31.376Z,17.22
2023-05-14T20:25:57.958Z,17.23
2023-05-14T20:28:24.973Z,17.31
2023-05-14T20:30:55.307Z,17.28
2023-05-14T20:33:21.933Z,17.21
2023-05-14T20:35:48.571Z,17.12
2023-05-14T20:38:15.183Z,17.18
2023-05-14T20:40:42.154Z,17.09
2023-05-14T20:43:08.703Z,17.03
2023-05-14T20:45:35.299Z,17.06
2023-05-14T20:48:01.858Z,17.13
2023-05-14T20:50:28.486Z,17.01
2023-05-14T20:52:55.046Z,16.83
2023-05-14T20:55:21.661Z,16.96
2023-05-14T20:57:48.223Z,17.04
2023-05-14T21:00:15.006Z,17.02
2023-05-14T21:02:41.865Z,17.06
2023-05-14T21:05:08.556Z,17.03
2023-05-14T21:07:35.152Z,17.10
2023-05-14T21:10:01.933Z,17.14
2023-05-14T21:12:28.486Z,17.21
2023-05-14T21:14:55.158Z,17.11
2023-05-14T21:17:21.763Z,17.15
2023-05-14T21:19:48.350Z,17.09
2023-05-14T21:22:14.954Z,17.03
2023-05-14T21:24:41.565Z,16.89
2023-05-14T21:27:08.157Z,16.89
2023-05-14T21:29:34.725Z,16.93
2023-05-14T21:32:01.406Z,16.60
2023-05-14T21:34:29.181Z,16.73
2023-05-14T21:36:57.068Z,16.58
2023-05-14T21:39:23.668Z,16.83
2023-05-14T21:41:50.256Z,16.88
2023-05-14T21:44:17.379Z,16.91
2023-05-14T21:46:45.979Z,16.86
2023-05-14T21:49:12.574Z,16.93
2023-05-14T21:51:39.153Z,16.88
2023-05-14T21:54:05.747Z,16.75
2023-05-14T21:56:32.349Z,16.84
2023-05-14T21:58:59.096Z,16.98
2023-05-14T22:01:25.762Z,17.01
2023-05-14T22:03:52.694Z,17.04
2023-05-14T22:06:19.336Z,17.08
2023-05-14T22:08:45.894Z,16.88
2023-05-14T22:11:12.489Z,16.61
2023-05-14T22:13:39.076Z,16.68
2023-05-14T22:16:12.847Z,16.55
2023-05-14T22:18:40.511Z,16.67
2023-05-14T22:21:07.133Z,16.81
2023-05-14T22:23:33.704Z,16.80
2023-05-14T22:26:00.634Z,16.78
2023-05-14T22:28:27.335Z,16.94
2023-05-14T22:30:53.955Z,16.83
2023-05-14T22:33:20.648Z,16.84
2023-05-14T22:35:47.243Z,16.67
2023-05-14T22:38:14.060Z,16.84
2023-05-14T22:40:40.667Z,16.95
2023-05-14T22:43:07.285Z,16.92
2023-05-14T22:45:33.853Z,16.90
2023-05-14T22:48:00.537Z,16.82
2023-05-14T22:50:27.134Z,16.78
2023-05-14T22:52:53.751Z,16.69
2023-05-14T22:55:20.371Z,16.65
2023-05-14T22:57:47.002Z,16.69
2023-05-14T23:00:13.579Z,16.69
2023-05-14T23:02:40.219Z,16.74
2023-05-14T23:05:06.833Z,16.51
2023-05-14T23:07:33.919Z,16.58
2023-05-14T23:10:00.486Z,16.70
2023-05-14T23:12:27.258Z,16.75
2023-05-14T23:14:53.821Z,16.62
2023-05-14T23:17:20.463Z,16.59
2023-05-14T23:19:47.321Z,16.10
2023-05-14T23:22:14.268Z,16.26
2023-05-14T23:24:40.871Z,16.57
2023-05-14T23:27:07.544Z,16.65
2023-05-14T23:29:34.127Z,16.70
2023-05-14T23:32:00.793Z,16.55
2023-05-14T23:34:27.379Z,16.34
2023-05-14T23:36:53.967Z,16.48
2023-05-14T23:39:20.538Z,16.55
2023-05-14T23:41:47.132Z,16.18
2023-05-14T23:44:13.696Z,16.23
2023-05-14T23:46:40.278Z,16.35
2023-05-14T23:49:06.834Z,16.37
2023-05-14T23:51:33.430Z,16.43
2023-05-14T23:53:59.995Z,16.30
2023-05-14T23:56:26.586Z,16.14
2023-05-14T23:58:53.223Z,15.54
